sensor_id;sensor_type;location;lat;lon;timestamp;P1;durP1;ratioP1;P2;durP2;ratioP2
11279;SDS011;5696;50.928;6.960;2022-12-11T00:00:52;44.88;;;27.33;;
11279;SDS011;5696;50.928;6.960;2022-12-11T06:35:30;28.77;;;19.13;;
11279;SDS011;5696;50.928;6.960;2022-12-11T06:37:56;30.27;;;19.98;;
11279;SDS011;5696;50.928;6.960;2022-12-11T06:40:21;30.30;;;19.75;;
11279;SDS011;5696;50.928;6.960;2022-12-11T06:42:47;30.70;;;20.73;;
11279;SDS011;5696;50.928;6.960;2022-12-11T06:45:12;29.60;;;19.98;;
11279;SDS011;5696;50.928;6.960;2022-12-11T06:47:38;31.92;;;20.92;;
11279;SDS011;5696;50.928;6.960;2022-12-11T06:50:04;32.38;;;20.75;;
11279;SDS011;5696;50.928;6.960;2022-12-11T06:52:30;32.38;;;20.33;;
11279;SDS011;5696;50.928;6.960;2022-12-11T06:54:55;33.90;;;21.90;;
11279;SDS011;5696;50.928;6.960;2022-12-11T06:57:21;32.78;;;21.80;;
11279;SDS011;5696;50.928;6.960;2022-12-11T06:59:47;32.83;;;21.45;;
11279;SDS011;5696;50.928;6.960;2022-12-11T07:02:14;33.85;;;22.00;;
11279;SDS011;5696;50.928;6.960;2022-12-11T07:04:41;32.33;;;20.85;;
11279;SDS011;5696;50.928;6.960;2022-12-11T07:07:08;34.13;;;21.40;;
11279;SDS011;5696;50.928;6.960;2022-12-11T07:09:34;30.65;;;20.67;;
11279;SDS011;5696;50.928;6.960;2022-12-11T07:12:02;31.90;;;20.55;;
11279;SDS011;5696;50.928;6.960;2022-12-11T07:14:28;32.75;;;21.65;;
11279;SDS011;5696;50.928;6.960;2022-12-11T07:16:55;35.70;;;21.90;;
11279;SDS011;5696;50.928;6.960;2022-12-11T07:19:21;35.00;;;22.33;;
11279;SDS011;5696;50.928;6.960;2022-12-11T07:21:46;34.55;;;21.63;;
11279;SDS011;5696;50.928;6.960;2022-12-11T07:24:14;33.67;;;22.73;;
11279;SDS011;5696;50.928;6.960;2022-12-11T07:26:40;34.20;;;22.20;;
11279;SDS011;5696;50.928;6.960;2022-12-11T07:29:06;38.58;;;22.98;;
11279;SDS011;5696;50.928;6.960;2022-12-11T07:31:32;36.83;;;22.33;;
11279;SDS011;5696;50.928;6.960;2022-12-11T07:33:59;35.10;;;23.52;;
11279;SDS011;5696;50.928;6.960;2022-12-11T07:36:27;37.88;;;23.85;;
11279;SDS011;5696;50.928;6.960;2022-12-11T07:38:54;29.13;;;18.63;;
11279;SDS011;5696;50.928;6.960;2022-12-11T07:41:20;37.55;;;23.38;;
11279;SDS011;5696;50.928;6.960;2022-12-11T07:43:47;34.55;;;22.55;;
11279;SDS011;5696;50.928;6.960;2022-12-11T07:46:17;35.78;;;22.65;;
11279;SDS011;5696;50.928;6.960;2022-12-11T07:48:45;31.65;;;21.25;;
11279;SDS011;5696;50.928;6.960;2022-12-11T07:51:13;38.13;;;22.95;;
11279;SDS011;5696;50.928;6.960;2022-12-11T07:53:39;33.00;;;21.90;;
11279;SDS011;5696;50.928;6.960;2022-12-11T07:56:06;35.47;;;21.95;;
11279;SDS011;5696;50.928;6.960;2022-12-11T07:58:31;35.47;;;22.80;;
11279;SDS011;5696;50.928;6.960;2022-12-11T08:00:57;31.67;;;21.77;;
11279;SDS011;5696;50.928;6.960;2022-12-11T08:03:24;33.17;;;21.40;;
11279;SDS011;5696;50.928;6.960;2022-12-11T08:05:50;32.40;;;21.20;;
11279;SDS011;5696;50.928;6.960;2022-12-11T08:08:16;36.20;;;22.55;;
11279;SDS011;5696;50.928;6.960;2022-12-11T08:10:42;33.72;;;21.08;;
11279;SDS011;5696;50.928;6.960;2022-12-11T08:13:08;33.33;;;22.00;;
11279;SDS011;5696;50.928;6.960;2022-12-11T08:15:34;34.35;;;21.52;;
11279;SDS011;5696;50.928;6.960;2022-12-11T08:18:00;31.60;;;21.20;;
11279;SDS011;5696;50.928;6.960;2022-12-11T08:20:26;34.47;;;21.73;;
11279;SDS011;5696;50.928;6.960;2022-12-11T08:22:52;33.22;;;21.63;;
11279;SDS011;5696;50.928;6.960;2022-12-11T08:25:17;30.50;;;20.95;;
11279;SDS011;5696;50.928;6.960;2022-12-11T08:27:43;30.25;;;19.77;;
11279;SDS011;5696;50.928;6.960;2022-12-11T08:30:14;29.15;;;19.80;;
11279;SDS011;5696;50.928;6.960;2022-12-11T08:32:40;28.15;;;19.50;;
11279;SDS011;5696;50.928;6.960;2022-12-11T08:35:06;28.15;;;18.63;;
11279;SDS011;5696;50.928;6.960;2022-12-11T08:37:32;29.63;;;19.73;;
11279;SDS011;5696;50.928;6.960;2022-12-11T08:39:58;31.30;;;21.40;;
11279;SDS011;5696;50.928;6.960;2022-12-11T08:42:24;34.28;;;21.42;;
11279;SDS011;5696;50.928;6.960;2022-12-11T08:44:49;32.05;;;20.70;;
11279;SDS011;5696;50.928;6.960;2022-12-11T08:47:16;30.65;;;20.67;;
11279;SDS011;5696;50.928;6.960;2022-12-11T08:49:41;32.50;;;21.13;;
11279;SDS011;5696;50.928;6.960;2022-12-11T08:52:07;34.47;;;21.75;;
11279;SDS011;5696;50.928;6.960;2022-12-11T08:54:33;32.60;;;20.73;;
11279;SDS011;5696;50.928;6.960;2022-12-11T08:57:00;33.47;;;21.83;;
11279;SDS011;5696;50.928;6.960;2022-12-11T08:59:26;34.47;;;22.60;;
11279;SDS011;5696;50.928;6.960;2022-12-11T09:01:53;32.00;;;21.05;;
11279;SDS011;5696;50.928;6.960;2022-12-11T09:04:19;29.48;;;19.95;;
11279;SDS011;5696;50.928;6.960;2022-12-11T09:06:45;31.27;;;20.20;;
11279;SDS011;5696;50.928;6.960;2022-12-11T09:09:11;31.02;;;20.92;;
11279;SDS011;5696;50.928;6.960;2022-12-11T09:11:36;31.33;;;20.88;;
11279;SDS011;5696;50.928;6.960;2022-12-11T09:14:03;30.23;;;20.92;;
11279;SDS011;5696;50.928;6.960;2022-12-11T09:16:29;34.00;;;21.00;;
11279;SDS011;5696;50.928;6.960;2022-12-11T09:18:56;30.58;;;20.52;;
11279;SDS011;5696;50.928;6.960;2022-12-11T09:21:24;27.67;;;18.25;;
11279;SDS011;5696;50.928;6.960;2022-12-11T09:23:53;26.95;;;18.58;;
11279;SDS011;5696;50.928;6.960;2022-12-11T09:26:20;28.60;;;19.42;;
11279;SDS011;5696;50.928;6.960;2022-12-11T09:28:47;27.23;;;18.67;;
11279;SDS011;5696;50.928;6.960;2022-12-11T09:31:18;29.08;;;19.08;;
11279;SDS011;5696;50.928;6.960;2022-12-11T09:33:47;30.70;;;20.10;;
11279;SDS011;5696;50.928;6.960;2022-12-11T09:36:14;29.13;;;19.27;;
11279;SDS011;5696;50.928;6.960;2022-12-11T09:38:39;30.67;;;19.60;;
11279;SDS011;5696;50.928;6.960;2022-12-11T09:41:28;29.02;;;18.45;;
11279;SDS011;5696;50.928;6.960;2022-12-11T09:47:11;29.67;;;20.27;;
11279;SDS011;5696;50.928;6.960;2022-12-11T09:49:42;28.25;;;20.63;;
11279;SDS011;5696;50.928;6.960;2022-12-11T09:52:17;30.73;;;21.10;;
11279;SDS011;5696;50.928;6.960;2022-12-11T09:54:49;27.52;;;19.85;;
11279;SDS011;5696;50.928;6.960;2022-12-11T10:00:27;31.75;;;20.88;;
11279;SDS011;5696;50.928;6.960;2022-12-11T10:03:23;30.23;;;20.25;;
11279;SDS011;5696;50.928;6.960;2022-12-11T10:06:16;32.38;;;21.42;;
11279;SDS011;5696;50.928;6.960;2022-12-11T10:16:21;36.15;;;22.90;;
11279;SDS011;5696;50.928;6.960;2022-12-11T10:18:55;39.78;;;24.67;;
11279;SDS011;5696;50.928;6.960;2022-12-11T10:21:21;46.70;;;26.67;;
11279;SDS011;5696;50.928;6.960;2022-12-11T10:23:57;51.63;;;28.23;;
11279;SDS011;5696;50.928;6.960;2022-12-11T10:26:27;44.38;;;26.65;;
11279;SDS011;5696;50.928;6.960;2022-12-11T10:28:54;45.40;;;26.88;;
11279;SDS011;5696;50.928;6.960;2022-12-11T10:31:37;47.58;;;27.98;;
11279;SDS011;5696;50.928;6.960;2022-12-11T10:34:25;45.50;;;28.55;;
11279;SDS011;5696;50.928;6.960;2022-12-11T10:36:58;53.33;;;29.60;;
11279;SDS011;5696;50.928;6.960;2022-12-11T10:39:23;53.67;;;30.88;;
11279;SDS011;5696;50.928;6.960;2022-12-11T10:41:50;55.47;;;31.15;;
11279;SDS011;5696;50.928;6.960;2022-12-11T10:44:35;57.30;;;32.50;;
11279;SDS011;5696;50.928;6.960;2022-12-11T10:49:54;55.40;;;31.83;;
11279;SDS011;5696;50.928;6.960;2022-12-11T10:52:34;63.00;;;33.40;;
11279;SDS011;5696;50.928;6.960;2022-12-11T10:55:19;60.15;;;34.45;;
11279;SDS011;5696;50.928;6.960;2022-12-11T10:57:58;57.20;;;35.05;;
11279;SDS011;5696;50.928;6.960;2022-12-11T11:00:35;58.70;;;34.30;;
11279;SDS011;5696;50.928;6.960;2022-12-11T11:03:17;59.50;;;34.90;;
11279;SDS011;5696;50.928;6.960;2022-12-11T11:06:12;60.55;;;34.83;;
11279;SDS011;5696;50.928;6.960;2022-12-11T11:08:44;58.45;;;34.75;;
11279;SDS011;5696;50.928;6.960;2022-12-11T11:11:26;55.88;;;34.00;;
11279;SDS011;5696;50.928;6.960;2022-12-11T11:14:15;55.78;;;32.78;;
11279;SDS011;5696;50.928;6.960;2022-12-11T11:16:46;53.03;;;30.15;;
11279;SDS011;5696;50.928;6.960;2022-12-11T11:19:35;50.63;;;29.83;;
11279;SDS011;5696;50.928;6.960;2022-12-11T11:22:02;51.03;;;28.55;;
11279;SDS011;5696;50.928;6.960;2022-12-11T11:24:41;49.10;;;28.25;;
11279;SDS011;5696;50.928;6.960;2022-12-11T11:30:01;47.75;;;28.55;;
11279;SDS011;5696;50.928;6.960;2022-12-11T11:32:36;48.55;;;29.05;;
11279;SDS011;5696;50.928;6.960;2022-12-11T11:37:35;45.97;;;28.60;;
11279;SDS011;5696;50.928;6.960;2022-12-11T11:40:21;44.20;;;27.25;;
11279;SDS011;5696;50.928;6.960;2022-12-11T11:43:18;40.95;;;25.73;;
11279;SDS011;5696;50.928;6.960;2022-12-11T11:46:09;38.88;;;25.70;;
11279;SDS011;5696;50.928;6.960;2022-12-11T11:54:14;39.85;;;26.52;;
11279;SDS011;5696;50.928;6.960;2022-12-11T11:57:09;46.10;;;28.27;;
11279;SDS011;5696;50.928;6.960;2022-12-11T11:59:42;41.13;;;26.17;;
11279;SDS011;5696;50.928;6.960;2022-12-11T12:02:14;40.25;;;25.23;;
11279;SDS011;5696;50.928;6.960;2022-12-11T12:04:41;34.22;;;22.73;;
11279;SDS011;5696;50.928;6.960;2022-12-11T12:07:17;37.30;;;24.10;;
11279;SDS011;5696;50.928;6.960;2022-12-11T12:09:51;38.15;;;24.80;;
11279;SDS011;5696;50.928;6.960;2022-12-11T12:15:21;35.58;;;23.92;;
11279;SDS011;5696;50.928;6.960;2022-12-11T12:26:23;38.08;;;25.75;;
11279;SDS011;5696;50.928;6.960;2022-12-11T12:36:42;36.50;;;22.98;;
11279;SDS011;5696;50.928;6.960;2022-12-11T12:42:01;33.60;;;22.08;;
11279;SDS011;5696;50.928;6.960;2022-12-11T12:44:58;35.50;;;23.85;;
11279;SDS011;5696;50.928;6.960;2022-12-11T12:47:43;35.80;;;23.20;;
11279;SDS011;5696;50.928;6.960;2022-12-11T12:50:18;35.05;;;23.13;;
11279;SDS011;5696;50.928;6.960;2022-12-11T12:52:46;33.28;;;22.13;;
11279;SDS011;5696;50.928;6.960;2022-12-11T12:58:06;34.10;;;21.02;;
11279;SDS011;5696;50.928;6.960;2022-12-11T13:00:48;38.38;;;22.48;;
11279;SDS011;5696;50.928;6.960;2022-12-11T13:03:15;34.65;;;22.13;;
11279;SDS011;5696;50.928;6.960;2022-12-11T13:05:55;38.00;;;22.25;;
11279;SDS011;5696;50.928;6.960;2022-12-11T13:08:27;31.55;;;20.30;;
11279;SDS011;5696;50.928;6.960;2022-12-11T13:11:11;31.15;;;20.75;;
11279;SDS011;5696;50.928;6.960;2022-12-11T13:13:40;31.48;;;19.92;;
11279;SDS011;5696;50.928;6.960;2022-12-11T13:18:42;26.60;;;17.38;;
11279;SDS011;5696;50.928;6.960;2022-12-11T13:27:07;30.05;;;18.45;;
11279;SDS011;5696;50.928;6.960;2022-12-11T13:29:38;29.08;;;18.50;;
11279;SDS011;5696;50.928;6.960;2022-12-11T13:34:34;27.90;;;18.33;;
11279;SDS011;5696;50.928;6.960;2022-12-11T13:37:06;33.08;;;19.75;;
11279;SDS011;5696;50.928;6.960;2022-12-11T13:39:50;32.90;;;20.25;;
11279;SDS011;5696;50.928;6.960;2022-12-11T13:42:35;30.52;;;20.30;;
11279;SDS011;5696;50.928;6.960;2022-12-11T13:45:06;30.48;;;19.88;;
11279;SDS011;5696;50.928;6.960;2022-12-11T13:47:41;29.98;;;18.95;;
11279;SDS011;5696;50.928;6.960;2022-12-11T13:50:13;27.58;;;18.70;;
11279;SDS011;5696;50.928;6.960;2022-12-11T13:52:58;28.23;;;18.00;;
11279;SDS011;5696;50.928;6.960;2022-12-11T13:55:26;28.75;;;18.85;;
11279;SDS011;5696;50.928;6.960;2022-12-11T13:57:56;29.30;;;19.52;;
11279;SDS011;5696;50.928;6.960;2022-12-11T14:00:29;30.85;;;19.45;;
11279;SDS011;5696;50.928;6.960;2022-12-11T14:02:57;31.52;;;20.65;;
11279;SDS011;5696;50.928;6.960;2022-12-11T14:05:27;33.90;;;20.65;;
11279;SDS011;5696;50.928;6.960;2022-12-11T14:07:57;34.42;;;20.98;;
11279;SDS011;5696;50.928;6.960;2022-12-11T14:10:34;34.80;;;20.23;;
11279;SDS011;5696;50.928;6.960;2022-12-11T14:13:11;27.80;;;18.90;;
11279;SDS011;5696;50.928;6.960;2022-12-11T14:15:47;33.22;;;19.30;;
11279;SDS011;5696;50.928;6.960;2022-12-11T14:18:23;35.30;;;21.70;;
11279;SDS011;5696;50.928;6.960;2022-12-11T14:20:55;33.67;;;20.52;;
11279;SDS011;5696;50.928;6.960;2022-12-11T14:23:26;30.63;;;19.70;;
11279;SDS011;5696;50.928;6.960;2022-12-11T14:25:57;31.67;;;19.88;;
11279;SDS011;5696;50.928;6.960;2022-12-11T14:28:25;30.63;;;20.17;;
11279;SDS011;5696;50.928;6.960;2022-12-11T14:30:53;31.77;;;20.08;;
11279;SDS011;5696;50.928;6.960;2022-12-11T14:33:23;29.08;;;18.60;;
11279;SDS011;5696;50.928;6.960;2022-12-11T14:35:53;26.10;;;17.13;;
11279;SDS011;5696;50.928;6.960;2022-12-11T14:38:22;28.77;;;17.65;;
11279;SDS011;5696;50.928;6.960;2022-12-11T14:40:59;25.77;;;16.58;;
11279;SDS011;5696;50.928;6.960;2022-12-11T14:43:32;27.45;;;17.08;;
11279;SDS011;5696;50.928;6.960;2022-12-11T14:46:10;26.30;;;16.30;;
11279;SDS011;5696;50.928;6.960;2022-12-11T14:48:51;27.25;;;15.85;;
11279;SDS011;5696;50.928;6.960;2022-12-11T14:51:22;21.73;;;15.38;;
11279;SDS011;5696;50.928;6.960;2022-12-11T14:53:52;26.27;;;16.73;;
11279;SDS011;5696;50.928;6.960;2022-12-11T14:56:23;28.27;;;17.45;;
11279;SDS011;5696;50.928;6.960;2022-12-11T14:58:55;29.77;;;18.67;;
11279;SDS011;5696;50.928;6.960;2022-12-11T15:01:30;26.15;;;17.05;;
11279;SDS011;5696;50.928;6.960;2022-12-11T15:04:05;25.02;;;16.00;;
11279;SDS011;5696;50.928;6.960;2022-12-11T15:06:44;28.83;;;18.05;;
11279;SDS011;5696;50.928;6.960;2022-12-11T15:09:24;27.40;;;18.40;;
11279;SDS011;5696;50.928;6.960;2022-12-11T15:11:54;29.33;;;19.25;;
11279;SDS011;5696;50.928;6.960;2022-12-11T15:14:21;28.85;;;18.05;;
11279;SDS011;5696;50.928;6.960;2022-12-11T15:16:48;29.17;;;18.70;;
11279;SDS011;5696;50.928;6.960;2022-12-11T15:19:36;29.55;;;19.45;;
11279;SDS011;5696;50.928;6.960;2022-12-11T15:22:02;27.75;;;18.92;;
11279;SDS011;5696;50.928;6.960;2022-12-11T15:24:33;29.25;;;19.95;;
11279;SDS011;5696;50.928;6.960;2022-12-11T15:27:02;28.65;;;19.92;;
11279;SDS011;5696;50.928;6.960;2022-12-11T15:29:32;30.48;;;19.13;;
11279;SDS011;5696;50.928;6.960;2022-12-11T15:35:36;30.60;;;21.10;;
11279;SDS011;5696;50.928;6.960;2022-12-11T15:37:53;31.13;;;19.80;;
11279;SDS011;5696;50.928;6.960;2022-12-11T15:40:20;25.75;;;18.17;;
11279;SDS011;5696;50.928;6.960;2022-12-11T15:42:46;27.38;;;19.10;;
11279;SDS011;5696;50.928;6.960;2022-12-11T15:47:49;26.38;;;18.90;;
11279;SDS011;5696;50.928;6.960;2022-12-11T15:50:19;29.08;;;19.38;;
11279;SDS011;5696;50.928;6.960;2022-12-11T15:52:50;30.15;;;19.77;;
11279;SDS011;5696;50.928;6.960;2022-12-11T15:55:18;25.30;;;19.10;;
11279;SDS011;5696;50.928;6.960;2022-12-11T15:58:05;27.10;;;19.65;;
11279;SDS011;5696;50.928;6.960;2022-12-11T16:00:33;30.40;;;20.98;;
11279;SDS011;5696;50.928;6.960;2022-12-11T16:02:59;26.45;;;19.58;;
11279;SDS011;5696;50.928;6.960;2022-12-11T16:05:25;30.20;;;20.50;;
11279;SDS011;5696;50.928;6.960;2022-12-11T16:07:51;29.55;;;19.83;;
11279;SDS011;5696;50.928;6.960;2022-12-11T16:10:19;28.75;;;19.75;;
11279;SDS011;5696;50.928;6.960;2022-12-11T16:12:45;31.30;;;19.00;;
11279;SDS011;5696;50.928;6.960;2022-12-11T16:15:11;28.10;;;19.10;;
11279;SDS011;5696;50.928;6.960;2022-12-11T16:17:39;28.88;;;20.50;;
11279;SDS011;5696;50.928;6.960;2022-12-11T16:20:06;27.85;;;20.25;;
11279;SDS011;5696;50.928;6.960;2022-12-11T16:22:33;29.90;;;20.23;;
11279;SDS011;5696;50.928;6.960;2022-12-11T16:24:58;30.25;;;20.85;;
11279;SDS011;5696;50.928;6.960;2022-12-11T16:27:24;31.70;;;21.08;;
11279;SDS011;5696;50.928;6.960;2022-12-11T16:29:50;31.52;;;20.02;;
11279;SDS011;5696;50.928;6.960;2022-12-11T16:32:15;28.80;;;20.23;;
11279;SDS011;5696;50.928;6.960;2022-12-11T16:34:42;33.35;;;21.85;;
11279;SDS011;5696;50.928;6.960;2022-12-11T16:37:09;30.60;;;20.73;;
11279;SDS011;5696;50.928;6.960;2022-12-11T16:39:35;29.90;;;19.58;;
11279;SDS011;5696;50.928;6.960;2022-12-11T16:42:02;28.85;;;21.05;;
11279;SDS011;5696;50.928;6.960;2022-12-11T16:44:28;28.20;;;19.42;;
11279;SDS011;5696;50.928;6.960;2022-12-11T16:46:54;28.98;;;20.65;;
11279;SDS011;5696;50.928;6.960;2022-12-11T16:49:19;30.17;;;20.08;;
11279;SDS011;5696;50.928;6.960;2022-12-11T16:51:45;29.55;;;19.98;;
11279;SDS011;5696;50.928;6.960;2022-12-11T16:54:13;26.25;;;19.58;;
11279;SDS011;5696;50.928;6.960;2022-12-11T16:56:39;30.60;;;20.70;;
11279;SDS011;5696;50.928;6.960;2022-12-11T16:59:05;27.63;;;19.88;;
11279;SDS011;5696;50.928;6.960;2022-12-11T17:01:31;30.48;;;21.65;;
11279;SDS011;5696;50.928;6.960;2022-12-11T17:03:58;28.60;;;20.27;;
11279;SDS011;5696;50.928;6.960;2022-12-11T17:06:24;30.98;;;21.00;;
11279;SDS011;5696;50.928;6.960;2022-12-11T17:08:50;27.80;;;20.30;;
11279;SDS011;5696;50.928;6.960;2022-12-11T17:11:17;29.10;;;21.58;;
11279;SDS011;5696;50.928;6.960;2022-12-11T17:13:46;31.63;;;22.20;;
11279;SDS011;5696;50.928;6.960;2022-12-11T17:16:13;29.92;;;21.33;;
11279;SDS011;5696;50.928;6.960;2022-12-11T17:18:40;30.65;;;21.15;;
11279;SDS011;5696;50.928;6.960;2022-12-11T17:21:07;45.55;;;29.10;;
11279;SDS011;5696;50.928;6.960;2022-12-11T17:23:35;32.25;;;21.70;;
11279;SDS011;5696;50.928;6.960;2022-12-11T17:26:01;28.55;;;20.65;;
11279;SDS011;5696;50.928;6.960;2022-12-11T17:28:28;31.50;;;21.95;;
11279;SDS011;5696;50.928;6.960;2022-12-11T17:30:54;31.75;;;21.90;;
11279;SDS011;5696;50.928;6.960;2022-12-11T17:33:20;31.92;;;21.77;;
11279;SDS011;5696;50.928;6.960;2022-12-11T17:35:46;27.83;;;20.88;;
11279;SDS011;5696;50.928;6.960;2022-12-11T17:38:12;28.65;;;20.92;;
11279;SDS011;5696;50.928;6.960;2022-12-11T17:40:39;29.10;;;20.85;;
11279;SDS011;5696;50.928;6.960;2022-12-11T17:43:05;28.13;;;20.35;;
11279;SDS011;5696;50.928;6.960;2022-12-11T17:45:38;29.55;;;20.83;;
11279;SDS011;5696;50.928;6.960;2022-12-11T17:48:05;29.42;;;21.35;;
11279;SDS011;5696;50.928;6.960;2022-12-11T17:50:31;30.77;;;21.60;;
11279;SDS011;5696;50.928;6.960;2022-12-11T17:52:56;29.15;;;20.48;;
11279;SDS011;5696;50.928;6.960;2022-12-11T17:55:22;31.45;;;20.20;;
11279;SDS011;5696;50.928;6.960;2022-12-11T17:57:48;28.40;;;20.73;;
11279;SDS011;5696;50.928;6.960;2022-12-11T18:00:14;29.10;;;20.88;;
11279;SDS011;5696;50.928;6.960;2022-12-11T18:02:40;70.75;;;54.38;;
11279;SDS011;5696;50.928;6.960;2022-12-11T18:05:06;53.60;;;39.20;;
11279;SDS011;5696;50.928;6.960;2022-12-11T18:07:34;31.50;;;21.92;;
11279;SDS011;5696;50.928;6.960;2022-12-11T18:10:01;27.50;;;20.48;;
11279;SDS011;5696;50.928;6.960;2022-12-11T18:12:27;30.25;;;21.08;;
11279;SDS011;5696;50.928;6.960;2022-12-11T18:14:57;30.02;;;19.98;;
11279;SDS011;5696;50.928;6.960;2022-12-11T18:17:24;27.52;;;20.15;;
11279;SDS011;5696;50.928;6.960;2022-12-11T18:19:50;27.88;;;20.15;;
11279;SDS011;5696;50.928;6.960;2022-12-11T18:22:15;23.95;;;16.65;;
11279;SDS011;5696;50.928;6.960;2022-12-11T18:24:42;30.45;;;20.92;;
11279;SDS011;5696;50.928;6.960;2022-12-11T18:27:07;31.23;;;20.58;;
11279;SDS011;5696;50.928;6.960;2022-12-11T18:29:35;31.42;;;21.40;;
11279;SDS011;5696;50.928;6.960;2022-12-11T18:32:01;31.70;;;20.73;;
11279;SDS011;5696;50.928;6.960;2022-12-11T18:34:26;31.20;;;21.45;;
11279;SDS011;5696;50.928;6.960;2022-12-11T18:36:52;30.17;;;21.80;;
11279;SDS011;5696;50.928;6.960;2022-12-11T18:39:18;30.73;;;22.23;;
11279;SDS011;5696;50.928;6.960;2022-12-11T18:41:43;30.48;;;21.02;;
11279;SDS011;5696;50.928;6.960;2022-12-11T18:44:09;32.10;;;22.30;;
11279;SDS011;5696;50.928;6.960;2022-12-11T18:46:35;30.55;;;22.13;;
11279;SDS011;5696;50.928;6.960;2022-12-11T18:49:01;31.48;;;21.95;;
11279;SDS011;5696;50.928;6.960;2022-12-11T18:51:26;32.22;;;23.15;;
11279;SDS011;5696;50.928;6.960;2022-12-11T18:53:52;32.22;;;22.25;;
11279;SDS011;5696;50.928;6.960;2022-12-11T18:56:18;32.90;;;23.30;;
11279;SDS011;5696;50.928;6.960;2022-12-11T18:58:44;32.35;;;23.27;;
11279;SDS011;5696;50.928;6.960;2022-12-11T19:01:21;32.47;;;22.38;;
11279;SDS011;5696;50.928;6.960;2022-12-11T19:03:48;31.52;;;21.70;;
11279;SDS011;5696;50.928;6.960;2022-12-11T19:06:17;28.85;;;21.48;;
11279;SDS011;5696;50.928;6.960;2022-12-11T19:08:45;30.48;;;21.48;;
11279;SDS011;5696;50.928;6.960;2022-12-11T19:11:14;32.00;;;22.67;;
11279;SDS011;5696;50.928;6.960;2022-12-11T19:13:42;35.72;;;25.63;;
11279;SDS011;5696;50.928;6.960;2022-12-11T19:16:13;33.83;;;23.30;;
11279;SDS011;5696;50.928;6.960;2022-12-11T19:18:42;32.75;;;22.27;;
11279;SDS011;5696;50.928;6.960;2022-12-11T19:21:09;30.15;;;22.08;;
11279;SDS011;5696;50.928;6.960;2022-12-11T19:23:36;32.75;;;22.90;;
11279;SDS011;5696;50.928;6.960;2022-12-11T19:26:02;28.27;;;20.73;;
11279;SDS011;5696;50.928;6.960;2022-12-11T19:28:28;29.88;;;21.05;;
11279;SDS011;5696;50.928;6.960;2022-12-11T19:30:54;37.50;;;26.02;;
11279;SDS011;5696;50.928;6.960;2022-12-11T19:33:20;36.55;;;26.17;;
11279;SDS011;5696;50.928;6.960;2022-12-11T19:35:46;53.38;;;37.65;;
11279;SDS011;5696;50.928;6.960;2022-12-11T19:38:11;34.25;;;22.42;;
11279;SDS011;5696;50.928;6.960;2022-12-11T19:40:38;30.83;;;21.92;;
11279;SDS011;5696;50.928;6.960;2022-12-11T19:43:05;33.55;;;24.58;;
11279;SDS011;5696;50.928;6.960;2022-12-11T19:45:31;34.85;;;24.73;;
11279;SDS011;5696;50.928;6.960;2022-12-11T19:47:56;33.30;;;23.08;;
11279;SDS011;5696;50.928;6.960;2022-12-11T19:50:22;32.47;;;22.90;;
11279;SDS011;5696;50.928;6.960;2022-12-11T19:52:47;36.05;;;24.45;;
11279;SDS011;5696;50.928;6.960;2022-12-11T19:55:13;30.10;;;20.88;;
11279;SDS011;5696;50.928;6.960;2022-12-11T19:57:39;30.70;;;22.85;;
11279;SDS011;5696;50.928;6.960;2022-12-11T20:00:05;76.63;;;50.85;;
11279;SDS011;5696;50.928;6.960;2022-12-11T20:02:32;38.35;;;25.48;;
11279;SDS011;5696;50.928;6.960;2022-12-11T20:04:58;34.75;;;24.98;;
11279;SDS011;5696;50.928;6.960;2022-12-11T20:07:23;41.80;;;27.63;;
11279;SDS011;5696;50.928;6.960;2022-12-11T20:09:49;33.40;;;22.80;;
11279;SDS011;5696;50.928;6.960;2022-12-11T20:12:15;50.20;;;34.47;;
11279;SDS011;5696;50.928;6.960;2022-12-11T20:14:40;30.35;;;23.27;;
11279;SDS011;5696;50.928;6.960;2022-12-11T20:17:06;33.25;;;25.60;;
11279;SDS011;5696;50.928;6.960;2022-12-11T20:19:33;33.15;;;23.73;;
11279;SDS011;5696;50.928;6.960;2022-12-11T20:21:59;40.78;;;28.63;;
11279;SDS011;5696;50.928;6.960;2022-12-11T20:24:24;28.33;;;20.10;;
11279;SDS011;5696;50.928;6.960;2022-12-11T20:26:51;38.88;;;26.63;;
11279;SDS011;5696;50.928;6.960;2022-12-11T20:29:18;37.03;;;26.88;;
11279;SDS011;5696;50.928;6.960;2022-12-11T20:31:43;42.50;;;29.08;;
11279;SDS011;5696;50.928;6.960;2022-12-11T20:34:10;53.50;;;38.13;;
11279;SDS011;5696;50.928;6.960;2022-12-11T20:36:36;32.35;;;22.50;;
11279;SDS011;5696;50.928;6.960;2022-12-11T20:39:03;54.33;;;38.03;;
11279;SDS011;5696;50.928;6.960;2022-12-11T20:41:29;29.38;;;21.83;;
11279;SDS011;5696;50.928;6.960;2022-12-11T20:43:55;27.80;;;21.02;;
11279;SDS011;5696;50.928;6.960;2022-12-11T20:46:21;26.83;;;19.95;;
11279;SDS011;5696;50.928;6.960;2022-12-11T20:48:51;28.13;;;20.60;;
11279;SDS011;5696;50.928;6.960;2022-12-11T20:51:20;45.47;;;31.38;;
11279;SDS011;5696;50.928;6.960;2022-12-11T20:53:46;24.70;;;20.10;;
11279;SDS011;5696;50.928;6.960;2022-12-11T20:56:16;29.58;;;22.63;;
11279;SDS011;5696;50.928;6.960;2022-12-11T20:58:43;28.50;;;20.88;;
11279;SDS011;5696;50.928;6.960;2022-12-11T21:01:29;26.80;;;20.60;;
11279;SDS011;5696;50.928;6.960;2022-12-11T21:03:56;26.42;;;20.20;;
11279;SDS011;5696;50.928;6.960;2022-12-11T21:08:59;29.20;;;22.65;;
11279;SDS011;5696;50.928;6.960;2022-12-11T21:11:27;30.13;;;22.10;;
11279;SDS011;5696;50.928;6.960;2022-12-11T21:13:53;25.50;;;18.65;;
11279;SDS011;5696;50.928;6.960;2022-12-11T21:16:19;27.25;;;21.83;;
11279;SDS011;5696;50.928;6.960;2022-12-11T21:18:46;26.17;;;19.27;;
11279;SDS011;5696;50.928;6.960;2022-12-11T21:21:12;26.05;;;19.73;;
11279;SDS011;5696;50.928;6.960;2022-12-11T21:23:39;24.92;;;19.52;;
11279;SDS011;5696;50.928;6.960;2022-12-11T21:26:04;26.40;;;20.23;;
11279;SDS011;5696;50.928;6.960;2022-12-11T21:28:30;25.67;;;18.98;;
11279;SDS011;5696;50.928;6.960;2022-12-11T21:31:03;25.20;;;19.80;;
11279;SDS011;5696;50.928;6.960;2022-12-11T21:33:31;24.83;;;19.48;;
11279;SDS011;5696;50.928;6.960;2022-12-11T21:35:57;26.35;;;19.70;;
11279;SDS011;5696;50.928;6.960;2022-12-11T21:38:24;25.70;;;19.25;;
11279;SDS011;5696;50.928;6.960;2022-12-11T21:40:50;25.15;;;19.50;;
11279;SDS011;5696;50.928;6.960;2022-12-11T21:43:17;26.20;;;19.85;;
11279;SDS011;5696;50.928;6.960;2022-12-11T21:45:43;28.80;;;20.45;;
11279;SDS011;5696;50.928;6.960;2022-12-11T21:48:08;28.33;;;20.58;;
11279;SDS011;5696;50.928;6.960;2022-12-11T21:50:34;26.15;;;20.38;;
11279;SDS011;5696;50.928;6.960;2022-12-11T21:53:00;28.55;;;20.52;;
11279;SDS011;5696;50.928;6.960;2022-12-11T21:55:26;27.85;;;21.23;;
11279;SDS011;5696;50.928;6.960;2022-12-11T21:57:53;29.60;;;21.20;;
11279;SDS011;5696;50.928;6.960;2022-12-11T22:00:19;24.38;;;19.15;;
11279;SDS011;5696;50.928;6.960;2022-12-11T22:02:45;23.63;;;19.00;;
11279;SDS011;5696;50.928;6.960;2022-12-11T22:05:11;25.73;;;19.88;;
11279;SDS011;5696;50.928;6.960;2022-12-11T22:07:37;24.92;;;19.92;;
11279;SDS011;5696;50.928;6.960;2022-12-11T22:10:03;26.23;;;20.08;;
11279;SDS011;5696;50.928;6.960;2022-12-11T22:12:29;25.52;;;19.98;;
11279;SDS011;5696;50.928;6.960;2022-12-11T22:14:55;26.73;;;19.15;;
11279;SDS011;5696;50.928;6.960;2022-12-11T22:17:21;24.17;;;19.05;;
11279;SDS011;5696;50.928;6.960;2022-12-11T22:19:47;25.25;;;19.13;;
11279;SDS011;5696;50.928;6.960;2022-12-11T22:22:13;23.65;;;18.35;;
11279;SDS011;5696;50.928;6.960;2022-12-11T22:24:39;26.30;;;18.98;;
11279;SDS011;5696;50.928;6.960;2022-12-11T22:27:05;24.52;;;19.17;;
11279;SDS011;5696;50.928;6.960;2022-12-11T22:29:31;24.45;;;18.63;;